createdAt,value
2023-03-31T00:00:22.022Z,8.60
2023-03-31T00:02:49.192Z,8.60
2023-03-31T00:05:18.387Z,8.60
2023-03-31T00:07:46.327Z,8.70
2023-03-31T00:10:18.207Z,8.70
2023-03-31T00:12:46.736Z,8.70
2023-03-31T00:15:13.801Z,8.60
2023-03-31T00:17:41.004Z,8.70
2023-03-31T00:20:12.655Z,8.70
2023-03-31T00:22:46.884Z,8.60
2023-03-31T00:25:15.476Z,8.70
2023-03-31T00:27:46.837Z,8.70
2023-03-31T00:30:14.830Z,8.80
2023-03-31T00:32:42.453Z,8.70
2023-03-31T00:35:10.139Z,8.60
2023-03-31T00:37:37.275Z,8.60
2023-03-31T00:40:09.527Z,8.50
2023-03-31T00:42:42.072Z,8.50
2023-03-31T00:45:15.028Z,8.40
2023-03-31T00:48:03.357Z,8.40
2023-03-31T00:50:37.842Z,8.40
2023-03-31T00:53:12.350Z,8.40
2023-03-31T00:55:46.012Z,8.40
2023-03-31T00:58:14.696Z,8.50
2023-03-31T01:00:43.026Z,8.50
2023-03-31T01:03:11.323Z,8.40
2023-03-31T01:05:51.906Z,8.50
2023-03-31T01:08:24.482Z,8.50
2023-03-31T01:11:03.414Z,8.50
2023-03-31T01:13:32.121Z,8.50
2023-03-31T01:15:59.200Z,8.40
2023-03-31T01:18:28.171Z,8.40
2023-03-31T01:21:19.021Z,8.40
2023-03-31T01:23:57.896Z,8.50
2023-03-31T01:27:00.706Z,8.40
2023-03-31T01:30:03.935Z,8.40
2023-03-31T01:33:08.423Z,8.30
2023-03-31T01:35:58.430Z,8.30
2023-03-31T01:38:51.455Z,8.40
2023-03-31T01:41:49.538Z,8.30
2023-03-31T01:44:19.603Z,8.30
2023-03-31T01:46:58.320Z,8.30
2023-03-31T01:49:43.461Z,8.30
2023-03-31T01:52:22.569Z,8.30
2023-03-31T01:55:09.939Z,8.40
2023-03-31T01:57:55.558Z,8.40
2023-03-31T02:00:33.533Z,8.50
2023-03-31T02:03:12.894Z,8.60
2023-03-31T02:05:53.282Z,8.70
2023-03-31T02:08:28.776Z,8.80
2023-03-31T02:10:57.772Z,8.80
2023-03-31T02:13:27.194Z,8.80
2023-03-31T02:15:59.979Z,8.70
2023-03-31T02:18:30.816Z,8.70
2023-03-31T02:21:00.003Z,8.70
2023-03-31T02:23:31.860Z,8.70
2023-03-31T02:26:14.552Z,8.70
2023-03-31T02:28:41.732Z,8.70
2023-03-31T02:31:47.986Z,8.70
2023-03-31T02:34:15.524Z,8.60
2023-03-31T02:36:44.482Z,8.50
2023-03-31T02:39:19.226Z,8.60
2023-03-31T02:41:46.431Z,8.60
2023-03-31T02:44:13.607Z,8.50
2023-03-31T02:46:41.595Z,8.60
2023-03-31T02:49:11.487Z,8.60
2023-03-31T02:51:57.025Z,8.60
2023-03-31T02:54:38.957Z,8.60
2023-03-31T02:57:24.722Z,8.70
2023-03-31T03:00:01.304Z,8.70
2023-03-31T03:03:11.767Z,8.80
2023-03-31T03:06:05.233Z,9.00
2023-03-31T03:09:07.595Z,9.10
2023-03-31T03:11:49.680Z,9.20
2023-03-31T03:14:32.315Z,9.30
2023-03-31T03:17:27.552Z,9.40
2023-03-31T03:19:58.973Z,9.40
2023-03-31T03:22:27.218Z,9.40
2023-03-31T03:24:54.761Z,9.30
2023-03-31T03:27:52.284Z,9.30
2023-03-31T03:30:21.304Z,9.30
2023-03-31T03:32:51.528Z,9.20
2023-03-31T03:35:21.761Z,9.10
2023-03-31T03:37:50.363Z,9.10
2023-03-31T03:40:28.492Z,9.00
2023-03-31T03:43:23.116Z,9.00
2023-03-31T03:45:58.476Z,9.00
2023-03-31T03:48:50.226Z,9.00
2023-03-31T03:51:27.145Z,8.90
2023-03-31T03:57:07.002Z,8.80
2023-03-31T03:59:42.674Z,8.80
2023-03-31T04:02:25.537Z,8.70
2023-03-31T04:08:44.423Z,8.70
2023-03-31T04:14:57.766Z,8.50
2023-03-31T04:17:37.388Z,8.50
2023-03-31T04:20:10.225Z,8.40
2023-03-31T04:22:41.260Z,8.40
2023-03-31T04:25:15.069Z,8.40
2023-03-31T04:27:50.874Z,8.50
2023-03-31T04:30:31.912Z,8.50
2023-03-31T04:33:02.871Z,8.60
2023-03-31T04:38:36.310Z,8.60
2023-03-31T04:41:03.387Z,8.60
2023-03-31T04:43:34.435Z,8.50
2023-03-31T04:46:01.578Z,8.50
2023-03-31T04:48:29.666Z,8.40
2023-03-31T04:50:56.640Z,8.40
2023-03-31T04:53:24.898Z,8.40
2023-03-31T04:55:51.907Z,8.40
2023-03-31T04:58:19.105Z,8.40
2023-03-31T05:00:48.268Z,8.40
2023-03-31T05:03:15.600Z,8.40
2023-03-31T05:05:48.898Z,8.40
2023-03-31T05:08:16.028Z,8.50
2023-03-31T05:10:49.735Z,8.50
2023-03-31T05:13:33.392Z,8.50
2023-03-31T05:16:18.918Z,8.50
2023-03-31T05:18:47.182Z,8.50
2023-03-31T05:21:18.532Z,8.60
2023-03-31T05:23:47.159Z,8.60
2023-03-31T05:26:15.425Z,8.60
2023-03-31T05:28:45.410Z,8.60
2023-03-31T05:31:17.475Z,8.70
2023-03-31T05:33:44.992Z,8.70
2023-03-31T05:37:05.454Z,8.70
2023-03-31T05:40:08.479Z,8.70
2023-03-31T05:43:41.281Z,8.70
2023-03-31T05:53:03.167Z,8.70
2023-03-31T05:56:11.507Z,8.70
2023-03-31T05:58:54.401Z,8.60
2023-03-31T06:05:06.710Z,8.60
2023-03-31T06:07:53.821Z,8.50
2023-03-31T06:10:29.932Z,8.50
2023-03-31T06:20:10.141Z,8.50
2023-03-31T06:22:59.444Z,8.60
2023-03-31T06:27:55.949Z,8.50
2023-03-31T06:30:23.062Z,8.40
2023-03-31T06:32:50.137Z,8.40
2023-03-31T06:35:18.442Z,8.40
2023-03-31T06:37:45.620Z,8.40
2023-03-31T06:40:12.950Z,8.40
2023-03-31T06:42:40.049Z,8.40
2023-03-31T06:45:08.960Z,8.30
2023-03-31T06:47:38.374Z,8.40
2023-03-31T06:50:06.436Z,8.40
2023-03-31T06:52:33.873Z,8.40
2023-03-31T06:55:03.687Z,8.50
2023-03-31T06:57:33.768Z,8.50
2023-03-31T07:00:02.166Z,8.50
2023-03-31T07:02:29.327Z,8.50
2023-03-31T07:04:56.708Z,8.60
2023-03-31T07:07:24.076Z,8.60
2023-03-31T07:09:52.239Z,8.60
2023-03-31T07:12:20.748Z,8.60
2023-03-31T07:14:47.872Z,8.60
2023-03-31T07:17:17.084Z,8.60
2023-03-31T07:19:48.213Z,8.60
2023-03-31T07:22:16.576Z,8.70
2023-03-31T07:24:43.589Z,8.70
2023-03-31T07:27:10.884Z,8.80
2023-03-31T07:29:37.896Z,8.80
2023-03-31T07:32:05.250Z,8.80
2023-03-31T07:34:32.329Z,8.80
2023-03-31T07:36:59.428Z,8.80
2023-03-31T07:39:26.570Z,8.80
2023-03-31T07:41:53.665Z,8.80
2023-03-31T07:44:22.008Z,8.80
2023-03-31T07:46:49.014Z,8.80
2023-03-31T07:49:16.351Z,8.80
2023-03-31T07:51:43.367Z,8.80
2023-03-31T07:54:11.623Z,8.80
2023-03-31T07:56:41.128Z,8.80
2023-03-31T07:59:08.568Z,8.80
2023-03-31T08:01:35.780Z,8.90
2023-03-31T08:04:04.072Z,8.90
2023-03-31T08:06:31.561Z,8.90
2023-03-31T08:08:59.341Z,9.00
2023-03-31T08:11:26.893Z,9.00
2023-03-31T08:13:54.140Z,9.10
2023-03-31T08:16:21.310Z,9.10
2023-03-31T08:18:48.548Z,9.20
2023-03-31T08:21:15.798Z,9.30
2023-03-31T08:23:42.920Z,9.60
2023-03-31T08:26:13.997Z,10.00
2023-03-31T08:28:42.725Z,10.60
2023-03-31T08:31:10.605Z,11.40
2023-03-31T08:33:37.854Z,11.80
2023-03-31T08:36:09.089Z,11.80
2023-03-31T08:38:37.885Z,11.80
2023-03-31T08:41:07.928Z,12.00
2023-03-31T08:43:43.179Z,12.20
2023-03-31T08:46:14.107Z,12.00
2023-03-31T08:48:55.054Z,11.90
2023-03-31T08:51:32.892Z,11.90
2023-03-31T08:54:08.190Z,12.00
2023-03-31T08:56:39.386Z,12.10
2023-03-31T08:59:16.724Z,12.20
2023-03-31T09:02:04.934Z,12.30
2023-03-31T09:04:54.055Z,12.70
2023-03-31T09:07:34.991Z,13.00
2023-03-31T09:10:36.210Z,13.00
2023-03-31T09:13:45.153Z,13.30
2023-03-31T09:16:17.964Z,13.70
2023-03-31T09:18:47.075Z,13.90
2023-03-31T09:21:39.040Z,13.90
2023-03-31T09:24:29.011Z,14.20
2023-03-31T09:27:07.235Z,14.40
2023-03-31T09:29:55.537Z,14.50
2023-03-31T09:32:28.837Z,14.70
2023-03-31T09:35:25.973Z,14.90
2023-03-31T09:37:54.123Z,14.60
2023-03-31T09:40:27.340Z,14.50
2023-03-31T09:43:06.515Z,14.40
2023-03-31T09:45:34.221Z,14.60
2023-03-31T09:48:15.060Z,14.90
2023-03-31T09:51:07.308Z,15.10
2023-03-31T09:53:43.385Z,15.10
2023-03-31T09:56:14.312Z,15.00
2023-03-31T09:58:48.728Z,15.40
2023-03-31T10:01:17.371Z,15.60
2023-03-31T10:03:52.436Z,15.60
2023-03-31T10:06:22.162Z,15.10
2023-03-31T10:09:02.281Z,15.30
2023-03-31T10:11:29.748Z,15.90
2023-03-31T10:14:02.373Z,15.50
2023-03-31T10:16:42.926Z,15.20
2023-03-31T10:19:24.328Z,15.10
2023-03-31T10:22:16.190Z,15.70
2023-03-31T10:24:46.250Z,16.00
2023-03-31T10:27:29.524Z,16.10
2023-03-31T10:29:59.016Z,15.90
2023-03-31T10:32:29.403Z,16.00
2023-03-31T10:35:09.357Z,16.10
2023-03-31T10:37:37.839Z,15.90
2023-03-31T10:40:13.800Z,15.60
2023-03-31T10:42:41.221Z,15.30
2023-03-31T10:45:37.143Z,14.90
2023-03-31T10:48:05.093Z,14.40
2023-03-31T10:50:37.105Z,14.50
2023-03-31T10:53:10.691Z,15.10
2023-03-31T10:55:53.379Z,15.30
2023-03-31T10:58:31.685Z,15.20
2023-03-31T11:01:27.628Z,15.10
2023-03-31T11:04:32.193Z,15.50
2023-03-31T11:07:24.489Z,16.00
2023-03-31T11:10:00.552Z,16.90
2023-03-31T11:12:56.953Z,17.20
2023-03-31T11:15:33.880Z,17.60
2023-03-31T11:18:09.788Z,17.10
2023-03-31T11:20:40.505Z,16.40
2023-03-31T11:23:43.727Z,15.50
2023-03-31T11:26:55.932Z,14.30
2023-03-31T11:30:14.143Z,13.00
2023-03-31T11:33:23.229Z,12.40
2023-03-31T11:36:30.486Z,12.30
2023-03-31T11:39:28.647Z,12.80
2023-03-31T11:42:02.304Z,12.90
2023-03-31T11:44:39.813Z,13.00
2023-03-31T11:47:13.818Z,13.50
2023-03-31T11:49:46.730Z,14.40
2023-03-31T11:52:19.733Z,15.10
2023-03-31T11:55:06.386Z,15.80
2023-03-31T11:57:43.663Z,16.30
2023-03-31T12:00:25.712Z,16.60
2023-03-31T12:03:19.384Z,16.70
2023-03-31T12:06:09.981Z,17.00
2023-03-31T12:09:13.321Z,17.30
2023-03-31T12:11:49.331Z,17.40
2023-03-31T12:14:50.558Z,17.60
2023-03-31T12:17:22.570Z,17.70
2023-03-31T12:20:02.324Z,17.40
2023-03-31T12:22:49.455Z,16.40
2023-03-31T12:25:26.920Z,15.40
2023-03-31T12:27:55.558Z,14.60
2023-03-31T12:30:44.419Z,13.10
2023-03-31T12:33:14.938Z,11.70
2023-03-31T12:35:51.238Z,10.80
2023-03-31T12:38:24.293Z,10.30
2023-03-31T12:41:15.074Z,10.20
2023-03-31T12:43:57.022Z,10.30
2023-03-31T12:46:45.903Z,10.40
2023-03-31T12:49:37.834Z,10.60
2023-03-31T12:52:11.819Z,10.60
2023-03-31T12:55:04.458Z,11.10
2023-03-31T12:57:31.676Z,11.80
2023-03-31T13:00:13.700Z,12.40
2023-03-31T13:02:41.556Z,12.40
2023-03-31T13:05:37.375Z,12.50
2023-03-31T13:08:06.105Z,12.30
2023-03-31T13:10:34.229Z,11.80
2023-03-31T13:13:04.187Z,11.60
2023-03-31T13:15:32.008Z,11.80
2023-03-31T13:18:05.606Z,12.50
2023-03-31T13:20:41.101Z,13.20
2023-03-31T13:23:17.086Z,13.90
2023-03-31T13:25:51.344Z,14.20
2023-03-31T13:28:31.648Z,14.20
2023-03-31T13:31:04.822Z,14.30
2023-03-31T13:33:41.448Z,14.30
2023-03-31T13:36:11.303Z,14.20
2023-03-31T13:38:41.444Z,14.30
2023-03-31T13:41:16.997Z,14.20
2023-03-31T13:44:36.566Z,14.10
2023-03-31T13:47:13.095Z,14.10
2023-03-31T13:50:01.181Z,14.30
2023-03-31T13:52:49.892Z,14.30
2023-03-31T13:55:22.376Z,14.40
2023-03-31T13:58:25.382Z,14.60
2023-03-31T14:01:34.685Z,14.60
2023-03-31T14:04:27.036Z,14.80
2023-03-31T14:06:58.488Z,14.60
2023-03-31T14:09:35.058Z,14.40
2023-03-31T14:12:21.267Z,14.30
2023-03-31T14:14:52.748Z,14.10
2023-03-31T14:17:20.194Z,13.90
2023-03-31T14:19:52.992Z,13.70
2023-03-31T14:22:55.422Z,13.40
2023-03-31T14:25:44.010Z,13.30
2023-03-31T14:28:54.353Z,13.30
2023-03-31T14:31:40.619Z,13.10
2023-03-31T14:34:26.416Z,13.20
2023-03-31T14:37:01.940Z,13.10
2023-03-31T14:39:44.721Z,12.90
2023-03-31T14:42:26.333Z,12.70
2023-03-31T14:45:04.853Z,12.70
2023-03-31T14:47:32.205Z,12.70
2023-03-31T14:50:05.267Z,12.90
2023-03-31T14:52:35.903Z,13.20
2023-03-31T14:55:03.072Z,13.20
2023-03-31T14:57:37.569Z,13.20
2023-03-31T15:00:10.866Z,13.10
2023-03-31T15:02:43.253Z,13.00
2023-03-31T15:05:22.324Z,13.10
2023-03-31T15:07:49.766Z,13.00
2023-03-31T15:10:21.560Z,13.00
2023-03-31T15:12:50.840Z,12.80
2023-03-31T15:15:20.416Z,12.70
2023-03-31T15:17:48.443Z,12.60
2023-03-31T15:20:24.872Z,12.60
2023-03-31T15:22:51.883Z,12.50
2023-03-31T15:25:19.717Z,12.50
2023-03-31T15:28:11.470Z,12.60
2023-03-31T15:30:38.650Z,12.50
2023-03-31T15:35:57.114Z,12.40
2023-03-31T15:38:27.789Z,12.30
2023-03-31T15:40:56.993Z,12.30
2023-03-31T15:43:33.518Z,12.30
2023-03-31T15:46:02.148Z,12.30
2023-03-31T15:48:33.817Z,12.50
2023-03-31T15:51:06.575Z,12.40
2023-03-31T15:53:54.005Z,12.40
2023-03-31T15:56:44.058Z,12.40
2023-03-31T16:02:46.439Z,12.30
2023-03-31T16:05:53.528Z,12.50
2023-03-31T16:08:43.858Z,12.80
2023-03-31T16:11:24.153Z,12.90
2023-03-31T16:13:56.937Z,13.00
2023-03-31T16:16:27.345Z,12.90
2023-03-31T16:19:04.281Z,12.70
2023-03-31T16:21:40.214Z,12.40
2023-03-31T16:24:07.945Z,12.30
2023-03-31T16:26:36.732Z,12.30
2023-03-31T16:29:04.119Z,12.20
2023-03-31T16:31:40.934Z,12.20
2023-03-31T16:34:10.003Z,12.00
2023-03-31T16:36:37.858Z,11.90
2023-03-31T16:39:07.223Z,11.70
2023-03-31T16:41:37.037Z,11.60
2023-03-31T16:44:04.664Z,11.50
2023-03-31T16:46:32.250Z,11.40
2023-03-31T16:48:59.682Z,11.30
2023-03-31T16:51:27.078Z,11.20
2023-03-31T16:53:55.514Z,11.20
2023-03-31T16:56:24.014Z,11.20
2023-03-31T16:58:51.896Z,11.20
2023-03-31T17:01:18.987Z,11.10
2023-03-31T17:03:48.184Z,11.10
2023-03-31T17:06:15.751Z,11.10
2023-03-31T17:08:42.785Z,11.00
2023-03-31T17:11:12.543Z,11.00
2023-03-31T17:13:41.841Z,10.90
2023-03-31T17:16:20.296Z,10.90
2023-03-31T17:18:53.477Z,10.80
2023-03-31T17:21:20.667Z,10.80
2023-03-31T17:23:48.404Z,10.70
2023-03-31T17:26:16.143Z,10.60
2023-03-31T17:28:43.480Z,10.60
2023-03-31T17:31:21.765Z,10.50
2023-03-31T17:33:48.740Z,10.40
2023-03-31T17:36:16.814Z,10.20
2023-03-31T17:38:43.919Z,10.20
2023-03-31T17:41:13.367Z,10.10
2023-03-31T17:43:44.393Z,10.10
2023-03-31T17:46:12.943Z,10.10
2023-03-31T17:48:41.544Z,10.10
2023-03-31T17:51:13.788Z,10.10
2023-03-31T17:53:42.139Z,10.10
2023-03-31T17:56:09.553Z,9.90
2023-03-31T17:58:36.751Z,9.80
2023-03-31T18:01:08.359Z,9.70
2023-03-31T18:03:36.674Z,9.60
2023-03-31T18:06:08.558Z,9.60
2023-03-31T18:08:37.071Z,9.50
2023-03-31T18:11:06.032Z,9.40
2023-03-31T18:13:36.561Z,9.50
2023-03-31T18:16:05.267Z,9.50
2023-03-31T18:18:32.747Z,9.50
2023-03-31T18:21:04.051Z,9.50
2023-03-31T18:23:32.686Z,9.50
2023-03-31T18:26:01.916Z,9.50
2023-03-31T18:28:29.215Z,9.50
2023-03-31T18:30:56.487Z,9.50
2023-03-31T18:33:23.677Z,9.50
2023-03-31T18:35:50.926Z,9.50
2023-03-31T18:38:18.643Z,9.50
2023-03-31T18:40:50.123Z,9.50
2023-03-31T18:43:18.575Z,9.30
2023-03-31T18:45:49.679Z,9.20
2023-03-31T18:48:18.636Z,9.00
2023-03-31T18:50:46.339Z,8.90
2023-03-31T18:53:15.346Z,8.70
2023-03-31T18:55:42.607Z,8.70
2023-03-31T18:58:10.133Z,8.60
2023-03-31T19:00:37.231Z,8.60
2023-03-31T19:03:04.474Z,8.60
2023-03-31T19:05:31.549Z,8.50
2023-03-31T19:07:59.205Z,8.40
2023-03-31T19:10:26.262Z,8.30
2023-03-31T19:12:53.348Z,8.20
2023-03-31T19:15:23.284Z,8.10
2023-03-31T19:17:51.048Z,8.10
2023-03-31T19:20:19.088Z,8.00
2023-03-31T19:22:52.499Z,8.00
2023-03-31T19:25:21.215Z,8.00
2023-03-31T19:27:49.292Z,7.90
2023-03-31T19:30:19.604Z,7.90
2023-03-31T19:32:49.217Z,7.90
2023-03-31T19:35:18.245Z,7.90
2023-03-31T19:37:46.220Z,7.90
2023-03-31T19:40:14.630Z,7.90
2023-03-31T19:42:44.880Z,7.80
2023-03-31T19:45:12.988Z,7.80
2023-03-31T19:47:41.299Z,7.80
2023-03-31T19:50:09.461Z,7.80
2023-03-31T19:52:37.509Z,7.90
2023-03-31T19:55:05.498Z,7.80
2023-03-31T19:57:32.936Z,7.90
2023-03-31T20:00:00.251Z,7.90
2023-03-31T20:02:27.758Z,7.90
2023-03-31T20:04:55.314Z,7.90
2023-03-31T20:07:23.585Z,7.90
2023-03-31T20:09:50.828Z,7.90
2023-03-31T20:12:17.909Z,8.00
2023-03-31T20:14:45.296Z,8.10
2023-03-31T20:17:13.404Z,8.10
2023-03-31T20:19:40.754Z,8.10
2023-03-31T20:22:08.139Z,8.10
2023-03-31T20:24:35.518Z,8.10
2023-03-31T20:27:03.244Z,8.20
2023-03-31T20:29:30.798Z,8.30
2023-03-31T20:31:57.958Z,8.30
2023-03-31T20:34:24.961Z,8.20
2023-03-31T20:36:52.297Z,8.20
2023-03-31T20:39:20.504Z,8.20
2023-03-31T20:41:50.162Z,8.20
2023-03-31T20:44:17.576Z,8.20
2023-03-31T20:46:45.328Z,8.20
2023-03-31T20:49:12.611Z,8.20
2023-03-31T20:51:39.690Z,8.30
2023-03-31T20:54:08.186Z,8.30
2023-03-31T20:56:40.619Z,8.30
2023-03-31T20:59:11.224Z,8.30
2023-03-31T21:01:39.044Z,8.30
2023-03-31T21:04:08.237Z,8.30
2023-03-31T21:06:43.552Z,8.30
2023-03-31T21:09:14.208Z,8.30
2023-03-31T21:11:41.744Z,8.40
2023-03-31T21:14:13.881Z,8.40
2023-03-31T21:16:41.605Z,8.40
2023-03-31T21:19:08.887Z,8.40
2023-03-31T21:21:36.538Z,8.40
2023-03-31T21:24:04.387Z,8.50
2023-03-31T21:26:31.500Z,8.50
2023-03-31T21:28:58.549Z,8.40
2023-03-31T21:31:26.191Z,8.40
2023-03-31T21:33:53.805Z,8.30
2023-03-31T21:36:22.774Z,8.30
2023-03-31T21:38:52.183Z,8.30
2023-03-31T21:41:22.800Z,8.30
2023-03-31T21:43:51.042Z,8.30
2023-03-31T21:46:20.421Z,8.20
2023-03-31T21:48:52.414Z,8.20
2023-03-31T21:51:22.143Z,8.20
2023-03-31T21:53:51.523Z,8.30
2023-03-31T21:56:18.500Z,8.20
2023-03-31T21:58:45.696Z,8.20
2023-03-31T22:01:13.352Z,8.20
2023-03-31T22:03:42.437Z,8.20
2023-03-31T22:06:09.869Z,8.20
2023-03-31T22:08:38.467Z,8.20
2023-03-31T22:11:07.483Z,8.20
2023-03-31T22:13:34.608Z,8.20
2023-03-31T22:16:05.615Z,8.20
2023-03-31T22:18:32.595Z,8.20
2023-03-31T22:21:02.568Z,8.20
2023-03-31T22:23:29.793Z,8.30
2023-03-31T22:25:57.801Z,8.40
2023-03-31T22:28:24.744Z,8.40
2023-03-31T22:30:56.870Z,8.40
2023-03-31T22:33:23.800Z,8.40
2023-03-31T22:35:50.882Z,8.40
2023-03-31T22:38:17.925Z,8.40
2023-03-31T22:40:46.906Z,8.40
2023-03-31T22:43:14.965Z,8.30
2023-03-31T22:45:42.127Z,8.20
2023-03-31T22:48:10.340Z,8.10
2023-03-31T22:50:37.341Z,8.10
2023-03-31T22:53:04.404Z,8.10
2023-03-31T22:55:31.574Z,8.10
2023-03-31T22:57:58.715Z,8.00
2023-03-31T23:00:26.021Z,8.00
2023-03-31T23:02:53.102Z,8.00
2023-03-31T23:05:21.760Z,8.00
2023-03-31T23:07:48.762Z,8.00
2023-03-31T23:10:16.932Z,8.00
2023-03-31T23:12:44.278Z,8.00
2023-03-31T23:15:11.546Z,8.00
2023-03-31T23:17:38.545Z,8.00
2023-03-31T23:20:06.634Z,8.10
2023-03-31T23:22:34.736Z,8.10
2023-03-31T23:25:05.327Z,8.10
2023-03-31T23:27:32.277Z,8.10
2023-03-31T23:30:06.228Z,8.10
2023-03-31T23:32:33.126Z,8.10
2023-03-31T23:35:00.312Z,8.00
2023-03-31T23:37:27.674Z,8.00
2023-03-31T23:39:54.697Z,8.00
2023-03-31T23:42:21.937Z,8.00
2023-03-31T23:44:49.929Z,8.00
2023-03-31T23:47:16.827Z,8.00
2023-03-31T23:49:43.844Z,8.10
2023-03-31T23:52:11.169Z,8.10
2023-03-31T23:54:38.132Z,8.10
2023-03-31T23:57:09.146Z,8.10
2023-03-31T23:59:36.237Z,8.10
